Saturday, October 25, 2014, 9:46 PM EDT

KFDK, Frederick, Frederick Municipal Airport

Location: Frederick, MD, United States Lat: 39.417
Local Time: 9:46 PM EDT ( 1:46 GMT) Lon: -77.374
Time Zone: US/Eastern Elev: 301 ft

Show me the last for .
Show Decoded

2014-10-25 21:20 METAR KFDK 260120Z AUTO 22006KT 10SM CLR 18/06 A2974 RMK AO2 =
2014-10-25 21:00 METAR KFDK 260100Z AUTO 22008KT 10SM CLR 18/05 A2975 RMK AO2 =
2014-10-25 20:40 METAR KFDK 260040Z AUTO 23009KT 10SM CLR 17/06 A2975 RMK AO2 =
2014-10-25 19:45 METAR KFDK 252345Z 24009KT 10SM SKC 19/6 A2975 =
2014-10-25 18:45 METAR KFDK 252245Z 25011KT 10SM SKC 22/04 A2974 =
2014-10-25 17:50 METAR KFDK 252150Z 25010KT 10SM SKC 22/05 A2975 =
2014-10-25 16:50 METAR KFDK 252050Z 25012G20KT 10SM SKC 24/03 A2997 =
2014-10-25 15:55 METAR KFDK 251955Z 25012G16KT 10SM SKC 21/03 A2980 =
2014-10-25 14:50 METAR KFDK 251850Z 24012KT 10SM SKC 21/04 A2983 =
2014-10-25 13:47 METAR KFDK 251747Z 23010KT 10SM SKC 23/04 A2986 =
2014-10-25 12:50 METAR KFDK 251650Z 25012KT 10SM SKC 22/04 A2991 =
2014-10-25 11:55 METAR KFDK 251555Z 25008G14KT 10SM SKC 21/04 A2994 =
2014-10-25 10:45 METAR KFDK 251445Z 24010KT 10SM SKC 19/05 A2997 =
2014-10-25 09:55 METAR KFDK 251355Z 18004KT 10SM SKC 19/06 A2999 =
2014-10-25 07:45 METAR KFDK 251145Z 00000KT 10SM SKC 09/04 A2998 =
2014-10-25 06:45 METAR KFDK 251045Z 23004KT 10SM SKC 11/04 A2998 =
2014-10-25 06:30 METAR KFDK 251030Z AUTO 22003KT 10SM +RA CLR 12/04 A2998 RMK AO2 =
2014-10-25 06:15 METAR KFDK 251015Z AUTO 16004KT 10SM RA CLR 12/03 A2998 RMK AO2 =
2014-10-25 05:55 METAR KFDK 250955Z AUTO 20006KT 10SM -SN CLR 11/04 A2998 RMK AO2 =
2014-10-25 05:35 METAR KFDK 250935Z AUTO 26004KT 10SM -SN CLR 09/04 A2998 RMK AO2 =
2014-10-25 05:15 METAR KFDK 250915Z AUTO 00000KT 10SM -SN CLR 08/04 A2998 RMK AO2 =
2014-10-25 04:55 METAR KFDK 250855Z AUTO 00000KT 10SM -SN SCT070 10/04 A2998 RMK AO2 =
2014-10-25 04:35 METAR KFDK 250835Z AUTO 13004KT 7SM -SN CLR 07/05 A2998 RMK AO2 =
2014-10-25 03:55 METAR KFDK 250755Z AUTO 00000KT 7SM -SN CLR 08/03 A2998 RMK AO2 =
2014-10-25 03:35 METAR KFDK 250735Z AUTO 23003KT 10SM -SN CLR 08/05 A2999 RMK AO2 =
2014-10-25 03:15 METAR KFDK 250715Z AUTO 18003KT 7SM -SN CLR 07/05 A2999 RMK AO2 =
2014-10-25 02:55 METAR KFDK 250655Z AUTO 00000KT 7SM -SN CLR 07/04 A2999 RMK AO2 =
2014-10-25 02:35 METAR KFDK 250635Z AUTO 00000KT 7SM -SN CLR 07/05 A2999 RMK AO2 =
2014-10-25 02:15 METAR KFDK 250615Z AUTO 16003KT 10SM CLR 08/04 A2999 RMK AO2 =
2014-10-25 01:55 METAR KFDK 250555Z AUTO 00000KT 10SM CLR 08/05 A2999 RMK AO2 =
2014-10-25 01:35 METAR KFDK 250535Z AUTO 00000KT 10SM CLR 08/05 A2999 RMK AO2 =
2014-10-25 01:15 METAR KFDK 250515Z AUTO 00000KT 10SM CLR 10/05 A2999 RMK AO2 =
2014-10-25 00:55 METAR KFDK 250455Z AUTO 00000KT 10SM CLR 11/03 A2999 RMK AO2 LTG DSNT E =
2014-10-25 00:35 METAR KFDK 250435Z AUTO 00000KT 10SM CLR 12/03 A2999 RMK AO2 =
2014-10-25 00:15 METAR KFDK 250415Z AUTO 00000KT 10SM CLR 10/04 A2999 RMK AO2 =
2014-10-24 23:55 METAR KFDK 250355Z AUTO 00000KT 10SM CLR 12/03 A2999 =
2014-10-24 23:35 METAR KFDK 250335Z AUTO 00000KT 10SM CLR 10/04 A2999 RMK AO2 LTG DSNT E =
2014-10-24 23:15 METAR KFDK 250315Z AUTO 00000KT 10SM CLR 12/03 A2999 =
2014-10-24 22:55 METAR KFDK 250255Z AUTO 00000KT 10SM CLR 14/02 A2999 =
2014-10-24 22:35 METAR KFDK 250235Z AUTO 00000KT 10SM CLR 14/02 A2999 RMK AO2 =
2014-10-24 22:15 METAR KFDK 250215Z AUTO 00000KT 10SM CLR 13/02 A2999 RMK AO2 =
2014-10-24 21:55 METAR KFDK 250155Z AUTO 26004KT 10SM CLR 15/01 A2998 RMK AO2 =

Support USWX by starting your Amazon purchase here.